Time;durP1;ratioP1;P1;durP2;ratioP2;P2;SDS_P1;SDS_P2;PMS_P1;PMS_P2;Temp;Humidity;BMP_temperature;BMP_pressure;BME280_temperature;BME280_humidity;BME280_pressure;Samples;Min_cycle;Max_cycle;Signal;HPM_P1;HPM_P2
2022/11/06 14:28:44;;;;;;;9.50;7.72;;;;;;;17.69;100.00;100443.88;10394608;27;1438683;-83
2022/11/06 14:34:03;;;;;;;10.57;7.40;;;;;;;17.69;100.00;100443.88;10409067;28;96860;-88
2022/11/06 14:39:10;;;;;;;8.85;7.25;;;;;;;17.12;100.00;100443.66;10335368;28;98865;-82
2022/11/06 14:44:23;;;;;;;8.45;6.75;;;;;;;16.85;100.00;100446.91;10286901;28;98574;-82
2022/11/06 14:49:40;;;;;;;8.70;7.10;;;;;;;16.93;100.00;100444.66;10285832;28;97301;-82
2022/11/06 14:54:53;;;;;;;8.60;6.57;;;;;;;18.15;100.00;100436.81;10285926;28;97122;-82
2022/11/06 14:59:58;;;;;;;7.30;6.45;;;;;;;18.81;100.00;100433.59;10285576;28;96929;-81
2022/11/06 15:05:05;;;;;;;7.07;5.72;;;;;;;19.21;100.00;100424.88;10285636;28;97224;-79
2022/11/06 15:10:49;;;;;;;7.43;5.63;;;;;;;19.28;100.00;100420.03;10281875;28;98684;-83
2022/11/06 15:15:58;;;;;;;6.90;5.03;;;;;;;19.63;100.00;100423.00;10281855;28;98694;-83
2022/11/06 15:21:03;;;;;;;6.03;5.00;;;;;;;19.24;100.00;100425.56;10283317;28;96915;-86
2022/11/06 15:26:17;;;;;;;7.00;5.40;;;;;;;18.04;100.00;100427.75;10279099;28;97455;-85
2022/11/06 15:31:22;;;;;;;5.30;4.73;;;;;;;18.12;100.00;100436.06;10281143;28;98968;-84
2022/11/06 15:36:28;;;;;;;6.70;4.88;;;;;;;18.47;100.00;100430.41;10279078;28;96937;-85
2022/11/06 15:41:31;;;;;;;5.85;5.10;;;;;;;17.88;100.00;100435.75;10255572;28;98508;-88
2022/11/06 15:46:35;;;;;;;6.43;5.28;;;;;;;17.65;100.00;100439.72;10254780;28;98636;-88
2022/11/06 15:51:40;;;;;;;6.20;4.82;;;;;;;17.75;100.00;100437.38;10255791;28;96984;-88
2022/11/06 15:56:43;;;;;;;7.32;5.05;;;;;;;17.41;100.00;100441.16;10245141;28;98707;-88
2022/11/06 16:01:49;;;;;;;7.37;5.03;;;;;;;17.86;100.00;100434.16;10253641;28;98611;-86
2022/11/06 16:06:55;;;;;;;5.63;4.63;;;;;;;18.16;100.00;100430.59;10253177;28;98330;-86
2022/11/06 16:11:59;;;;;;;6.40;4.82;;;;;;;18.16;100.00;100423.50;10259129;28;97007;-87
2022/11/06 16:17:10;;;;;;;;;;;;;;;18.28;100.00;100425.41;10257709;28;97044;-85
2022/11/06 16:22:16;;;;;;;7.25;4.70;;;;;;;18.11;100.00;100423.78;10260315;28;97909;-92
2022/11/06 16:32:50;;;;;;;7.53;5.03;;;;;;;17.92;100.00;100429.31;10030046;29;97150;-80
2022/11/06 16:37:53;;;;;;;8.50;5.15;;;;;;;17.49;100.00;100433.63;10032053;28;96912;-79
2022/11/06 16:43:18;;;;;;;8.13;5.60;;;;;;;17.20;100.00;100436.16;10063013;28;97073;-79
2022/11/06 16:48:33;;;;;;;6.05;4.90;;;;;;;16.97;100.00;100432.16;10061138;28;96839;-79
2022/11/06 16:53:58;;;;;;;7.95;5.25;;;;;;;16.71;100.00;100444.13;10062092;28;96738;-79
2022/11/06 16:59:05;;;;;;;6.68;5.38;;;;;;;16.47;100.00;100441.00;10060463;28;96886;-79
2022/11/06 17:04:19;;;;;;;7.03;4.97;;;;;;;16.23;100.00;100450.16;10062160;28;96650;-79
2022/11/06 17:09:30;;;;;;;7.75;5.55;;;;;;;15.99;100.00;100446.16;10061893;28;96757;-79
2022/11/06 17:14:33;;;;;;;8.00;5.07;;;;;;;15.87;100.00;100459.03;10061716;28;96899;-79
2022/11/06 17:19:38;;;;;;;6.82;5.55;;;;;;;15.82;100.00;100450.50;10061192;28;96836;-79
2022/11/06 17:24:41;;;;;;;9.52;5.70;;;;;;;15.82;100.00;100449.66;10061330;28;96697;-79
2022/11/06 17:29:44;;;;;;;9.95;6.35;;;;;;;15.73;100.00;100452.75;10060759;28;96990;-79
2022/11/06 17:34:49;;;;;;;6.93;5.90;;;;;;;15.55;100.00;100459.75;10061018;28;96775;-79
2022/11/06 17:39:53;;;;;;;9.25;6.72;;;;;;;15.42;100.00;100462.16;10060979;28;96775;-79
2022/11/06 17:44:56;;;;;;;10.05;6.15;;;;;;;15.34;100.00;100462.53;10060583;28;96823;-79
2022/11/06 17:50:01;;;;;;;8.65;6.05;;;;;;;15.36;100.00;100463.31;10060487;28;96663;-79
2022/11/06 17:55:04;;;;;;;;;;;;;;;15.20;100.00;100470.22;10060897;28;96740;-79
2022/11/06 18:00:09;;;;;;;9.77;6.60;;;;;;;15.20;100.00;100471.09;10059979;29;96985;-79
2022/11/06 18:05:14;;;;;;;10.38;6.80;;;;;;;15.18;100.00;100480.81;10060221;28;96982;-79
2022/11/06 18:10:17;;;;;;;;;;;;;;;15.00;100.00;100479.94;10060620;29;96861;-79
2022/11/06 18:15:20;;;;;;;9.00;7.18;;;;;;;15.01;100.00;100484.28;10060244;29;97176;-79
2022/11/06 18:20:25;;;;;;;13.80;7.25;;;;;;;14.91;100.00;100490.91;10059931;28;97294;-79
2022/11/06 18:25:28;;;;;;;;;;;;;;;14.75;100.00;100496.88;10060493;29;96901;-79
2022/11/06 18:30:31;;;;;;;13.50;8.05;;;;;;;14.78;100.00;100502.91;10059087;28;96883;-79
2022/11/06 18:35:36;;;;;;;8.77;6.97;;;;;;;14.82;100.00;100515.00;10059338;28;96789;-79
2022/11/06 18:40:39;;;;;;;10.88;7.53;;;;;;;14.82;100.00;100515.00;10059434;28;96673;-79
2022/11/06 18:45:43;;;;;;;12.80;8.45;;;;;;;14.82;100.00;100521.13;10059357;28;97041;-79
2022/11/06 18:50:47;;;;;;;10.40;7.05;;;;;;;14.82;100.00;100525.53;10058689;28;96873;-79
2022/11/06 18:55:51;;;;;;;12.52;6.75;;;;;;;14.74;100.00;100533.78;10058722;28;96755;-79
2022/11/06 19:00:54;;;;;;;10.90;8.00;;;;;;;14.82;100.00;100541.31;10059051;28;97180;-79
2022/11/06 19:06:08;;;;;;;11.00;7.93;;;;;;;14.70;100.00;100538.34;10058723;28;96841;-79
2022/11/06 19:11:13;;;;;;;11.18;7.80;;;;;;;14.71;100.00;100544.44;10059330;28;96869;-79
2022/11/06 19:16:18;;;;;;;9.30;7.65;;;;;;;14.73;100.00;100550.50;10064841;28;96888;-79
2022/11/06 19:21:23;;;;;;;10.35;7.65;;;;;;;14.67;100.00;100551.63;10065283;28;96768;-79
2022/11/06 19:26:26;;;;;;;12.10;8.65;;;;;;;14.64;100.00;100554.38;10064967;28;96878;-79
2022/11/06 19:31:35;;;;;;;12.45;8.02;;;;;;;14.59;100.00;100556.34;10064417;28;97563;-79
2022/11/06 19:36:40;;;;;;;11.75;7.80;;;;;;;14.54;100.00;100553.06;10064666;28;96682;-79
2022/11/06 19:41:44;;;;;;;11.93;8.25;;;;;;;14.52;100.00;100539.13;10064591;28;96805;-79
2022/11/06 19:46:47;;;;;;;10.95;7.07;;;;;;;14.44;100.00;100533.38;10064093;28;96834;-79
2022/11/06 19:51:52;;;;;;;12.15;8.43;;;;;;;14.26;100.00;100527.97;10064223;28;97295;-79
2022/11/06 19:56:55;;;;;;;10.65;7.13;;;;;;;14.19;100.00;100527.34;10064199;28;96858;-79
2022/11/06 20:02:18;;;;;;;10.88;7.75;;;;;;;14.25;100.00;100520.97;10063599;29;96797;-79
2022/11/06 20:07:25;;;;;;;11.40;8.40;;;;;;;14.19;100.00;100529.13;10063703;28;97114;-79
2022/11/06 20:12:28;;;;;;;11.32;8.45;;;;;;;14.16;100.00;100539.78;10063480;28;96812;-80
2022/11/06 20:17:31;;;;;;;14.48;8.60;;;;;;;14.12;100.00;100546.06;10063182;28;96762;-79
2022/11/06 20:22:36;;;;;;;13.13;8.32;;;;;;;14.13;100.00;100540.75;10063296;28;96761;-79
2022/11/06 20:27:39;;;;;;;11.15;8.27;;;;;;;14.15;100.00;100541.53;10062954;28;96741;-79
2022/11/06 20:32:43;;;;;;;12.35;7.72;;;;;;;14.20;100.00;100543.97;10062929;28;96761;-79
2022/11/06 20:37:48;;;;;;;10.15;7.57;;;;;;;14.23;100.00;100546.50;10062414;28;96745;-79
2022/11/06 20:42:51;;;;;;;11.48;7.93;;;;;;;14.26;100.00;100545.50;10062669;28;96643;-79
2022/11/06 20:47:55;;;;;;;12.45;7.18;;;;;;;14.22;100.00;100552.66;10062656;28;96728;-79
2022/11/06 20:52:59;;;;;;;9.43;6.72;;;;;;;14.15;100.00;100551.22;10062514;28;96901;-79
2022/11/06 20:58:02;;;;;;;11.65;7.05;;;;;;;14.16;100.00;100553.78;10061944;28;98399;-79
2022/11/06 21:03:06;;;;;;;9.68;6.90;;;;;;;14.16;100.00;100558.19;10061999;28;96897;-79
2022/11/06 21:08:11;;;;;;;9.02;7.00;;;;;;;14.16;100.00;100568.72;10061708;28;97159;-79
2022/11/06 21:13:13;;;;;;;;;;;;;;;14.14;100.00;100567.91;10062228;28;96945;-79
2022/11/06 21:18:17;;;;;;;10.90;6.47;;;;;;;14.16;100.00;100564.31;10061315;28;97562;-79
2022/11/06 21:23:22;;;;;;;11.93;7.43;;;;;;;14.18;100.00;100566.88;10061478;28;96810;-79
2022/11/06 21:28:25;;;;;;;12.57;7.03;;;;;;;14.18;100.00;100572.13;10060564;28;97144;-79
2022/11/06 21:33:29;;;;;;;10.68;7.40;;;;;;;14.19;100.00;100573.81;10060610;28;96776;-79
2022/11/06 21:38:33;;;;;;;12.18;6.90;;;;;;;14.19;100.00;100568.56;10060353;28;96849;-79
2022/11/06 21:43:36;;;;;;;11.82;7.47;;;;;;;14.22;100.00;100567.59;10060840;28;96734;-79
2022/11/06 21:48:41;;;;;;;11.40;6.82;;;;;;;14.26;100.00;100572.66;10060375;28;97001;-79
2022/11/06 21:59:14;;;;;;;12.15;7.55;;;;;;;14.23;100.00;100583.31;10059857;29;96723;-79
2022/11/06 22:04:17;;;;;;;20.67;11.73;;;;;;;14.22;100.00;100584.22;10060269;28;96844;-79
2022/11/06 22:09:22;;;;;;;17.05;9.77;;;;;;;14.22;100.00;100586.84;10058630;28;96808;-79
2022/11/06 22:14:27;;;;;;;11.38;8.43;;;;;;;14.14;100.00;100581.94;10059792;28;97087;-79
2022/11/06 22:19:31;;;;;;;13.02;7.82;;;;;;;14.12;100.00;100588.16;10059754;28;96607;-79
2022/11/06 22:24:35;;;;;;;10.27;7.90;;;;;;;14.12;100.00;100593.41;10059816;28;96832;-79
2022/11/06 22:29:38;;;;;;;12.60;8.00;;;;;;;14.15;100.00;100594.13;10059135;28;96759;-79
2022/11/06 22:34:41;;;;;;;13.57;8.18;;;;;;;14.14;100.00;100587.19;10059522;28;96809;-79
2022/11/06 22:39:47;;;;;;;13.23;8.80;;;;;;;14.12;100.00;100585.53;10059313;28;96750;-79
2022/11/06 22:44:51;;;;;;;11.45;7.22;;;;;;;14.11;100.00;100581.19;10059147;28;97158;-79
2022/11/06 22:49:54;;;;;;;10.50;6.78;;;;;;;14.13;100.00;100579.34;10065186;29;96639;-79
2022/11/06 22:54:58;;;;;;;19.55;8.23;;;;;;;14.14;100.00;100586.31;10066131;28;96764;-79
2022/11/06 23:00:02;;;;;;;11.80;8.15;;;;;;;14.11;100.00;100579.41;10063780;28;97046;-79
2022/11/06 23:05:07;;;;;;;12.03;7.07;;;;;;;14.13;100.00;100584.63;10064613;28;96781;-79
2022/11/06 23:10:11;;;;;;;9.47;7.10;;;;;;;14.09;100.00;100578.63;10063629;28;96892;-79
2022/11/06 23:15:14;;;;;;;13.75;8.07;;;;;;;13.99;100.00;100570.25;10063954;28;96970;-79
2022/11/06 23:20:18;;;;;;;12.85;7.97;;;;;;;13.91;100.00;100574.97;10062138;28;97685;-79
2022/11/06 23:25:23;;;;;;;9.98;7.35;;;;;;;13.90;100.00;100573.28;10063163;28;96654;-79
2022/11/06 23:30:28;;;;;;;12.25;7.57;;;;;;;13.80;100.00;100571.94;10062458;28;97415;-79
2022/11/06 23:35:32;;;;;;;10.35;7.22;;;;;;;13.81;100.00;100573.63;10062908;28;96702;-79
2022/11/06 23:40:37;;;;;;;11.05;7.80;;;;;;;13.88;100.00;100558.47;10062756;28;97337;-79
2022/11/06 23:45:50;;;;;;;12.75;7.53;;;;;;;13.89;100.00;100554.94;10062835;28;96787;-79
2022/11/06 23:50:53;;;;;;;11.43;7.40;;;;;;;13.87;100.00;100549.72;10062576;28;96751;-79
2022/11/06 23:55:58;;;;;;;12.82;8.43;;;;;;;13.82;100.00;100546.44;10063269;28;97690;-79
